Tuesday, January 23, 2018, 7:15 AM EST
Back to Local

KGKJ, Port Meadville Airport

Location: Meadville, PA, United States Lat: 41.633
Local Time: 7:15 AM EST (12:15 GMT) Lon: -80.217
Time Zone: US/Eastern Elev: 1400 ft

Show me the last for .
Show Decoded

2018-01-23 06:53 METAR KGKJ 231153Z AUTO VRB04KT 9SM -RA BKN004 OVC050 07/07 A2957 RMK AO2 RAB52
                 SLP014 P0000 60014 70023 T00670067 10117 20061 58003 =
2018-01-23 06:34 METAR KGKJ 231134Z AUTO VRB04KT 6SM BR BKN004 OVC065 07/07 A2957 RMK AO2
                 T00670067 =
2018-01-23 06:25 METAR KGKJ 231125Z AUTO VRB04KT 7SM SCT004 OVC065 07/07 A2957 RMK AO2 T00670067
                 =
2018-01-23 05:53 METAR KGKJ 231053Z AUTO VRB05KT 8SM BKN003 OVC065 07/07 A2958 RMK AO2 CIG
                 002V008 SLP017 T00670067 =
2018-01-23 05:37 METAR KGKJ 231037Z AUTO 16003KT 5SM BR BKN004 OVC075 07/07 A2957 RMK AO2
                 T00670067 =
2018-01-23 04:53 METAR KGKJ 230953Z AUTO VRB03KT 9SM FEW006 OVC070 07/07 A2958 RMK AO2
                 RAB0857E16B32E40 SLP020 P0000 T00670067 =
2018-01-23 04:44 METAR KGKJ 230944Z AUTO VRB03KT 10SM FEW006 OVC075 07/07 A2958 RMK AO2
                 RAB0857E16B32E40 P0000 T00670067 =
2018-01-23 03:53 METAR KGKJ 230853Z AUTO 00000KT 10SM BKN049 BKN070 OVC095 07/06 A2958 RMK AO2
                 RAE45 SLP018 P0005 60014 T00670061 50006 =
2018-01-23 02:53 METAR KGKJ 230753Z AUTO 25010KT 9SM -RA FEW012 BKN042 OVC050 07/07 A2961 RMK AO2
                 PK WND 30033/0718 WSHFT 0712 LTG DSNT NE-SE RAB16 SLP028 P0009 T00720067 =
2018-01-23 02:32 METAR KGKJ 230732Z AUTO 27013G28KT 5SM -RA BR SCT016 BKN036 OVC044 08/07 A2960
                 RMK AO2 PK WND 30033/0718 WSHFT 0712 LTG DSNT E RAB16 P0007 T00780067 =
2018-01-23 02:08 METAR KGKJ 230708Z AUTO 14009G16KT 100V170 10SM BKN044 BKN050 OVC080 11/07 A2954
                 RMK AO2 LTG DSNT N T01110067 =
2018-01-23 01:53 METAR KGKJ 230653Z AUTO 17004KT 10SM VCTS SCT044 BKN050 OVC080 11/06 A2954 RMK
                 AO2 LTG DSNT W-N SLP002 T01110061 =
2018-01-23 00:53 METAR KGKJ 230553Z AUTO VRB05KT 10SM FEW047 BKN070 OVC090 11/07 A2956 RMK AO2
                 SLP010 60007 T01110067 10133 20094 58042 =
2018-01-22 23:53 METAR KGKJ 230453Z AUTO 16004KT 10SM BKN050 OVC090 11/07 A2962 RMK AO2 SLP030
                 T01110067 401330044 =
2018-01-22 22:53 METAR KGKJ 230353Z AUTO 00000KT 10SM BKN046 BKN055 OVC085 11/08 A2966 RMK AO2
                 SLP046 T01110078 =
2018-01-22 21:53 METAR KGKJ 230253Z AUTO VRB04KT 10SM OVC038 10/08 A2969 RMK AO2 RAE47 SLP057
                 P0003 60007 T01000083 58026 =
2018-01-22 20:53 METAR KGKJ 230153Z AUTO VRB05KT 7SM -RA BKN047 OVC055 11/08 A2972 RMK AO2 SLP067
                 P0004 T01110083 =
2018-01-22 19:53 METAR KGKJ 230053Z AUTO 18006KT 9SM -RA OVC060 12/07 A2976 RMK AO2 RAB36 SLP079
                 P0000 T01220072 =
2018-01-22 18:53 METAR KGKJ 222353Z AUTO VRB04KT 10SM SCT120 13/07 A2977 RMK AO2 SLP084 T01280072
                 10128 20111 56016 =
2018-01-22 17:53 METAR KGKJ 222253Z AUTO 17006KT 10SM BKN075 BKN120 13/08 A2979 RMK AO2 SLP090
                 T01280078 =
2018-01-22 16:53 METAR KGKJ 222153Z AUTO VRB04KT 10SM CLR 12/08 A2980 RMK AO2 SLP095 T01220078 =
2018-01-22 15:53 METAR KGKJ 222053Z AUTO VRB05KT 10SM SCT085 12/08 A2982 RMK AO2 SLP102 T01220078
                 56024 =
2018-01-22 14:53 METAR KGKJ 221953Z AUTO VRB03KT 10SM OVC080 12/08 A2983 RMK AO2 SLP106 T01170078
                 =
2018-01-22 13:53 METAR KGKJ 221853Z AUTO 10SM BKN075 OVC095 12/08 A2986 RMK AO2 SLP113 T01220083
                 =
2018-01-22 12:53 METAR KGKJ 221753Z AUTO 16006KT 10SM BKN065 OVC080 11/08 A2989 RMK AO2 SLP126
                 60002 T01110083 10111 20067 58027 =
2018-01-22 11:53 METAR KGKJ 221653Z AUTO VRB04KT 10SM BKN065 OVC090 09/08 A2994 RMK AO2 RAE39
                 SLP143 P0000 T00940078 =
2018-01-22 10:53 METAR KGKJ 221553Z AUTO VRB03KT 7SM -RA BKN060 OVC075 09/08 A2997 RMK AO2 RAB50
                 SLP154 P0001 T00890078 =
2018-01-22 09:53 METAR KGKJ 221453Z AUTO VRB04KT 10SM BKN049 OVC110 08/08 A2998 RMK AO2 RAE1358
                 SLP157 P0000 60001 T00780078 56005 =
2018-01-22 08:53 METAR KGKJ 221353Z AUTO VRB05KT 8SM -RA FEW030 BKN047 OVC070 07/07 A2998 RMK AO2
                 RAE25B48 SLP158 P0000 T00720072 =
2018-01-22 07:53 METAR KGKJ 221253Z AUTO VRB05KT 7SM -RA FEW005 BKN035 OVC065 07/07 A2999 RMK AO2
                 RAB00E17B40 SLP163 P0001 T00670067 =
2018-01-22 07:25 METAR KGKJ 221225Z AUTO VRB04KT 8SM SCT005 OVC034 07/07 A2999 RMK AO2 RAB00E17
                 P0000 T00670067 =

Support USWX by starting your Amazon purchase here.